1888 NOT_NAMED (1888346S19066)


IBTrACS version v04r00. Visit IBTrACS website for data access.
Please direct all questions to the IBTrACS Q and A forum

Storm track - Intensity - Wind Radii - Intensity Data - Source Data - All data

Summary Information

Storm ID 1888346S19066
Start Dec 11 06Z
End Dec 17 06Z
ATCF IDs
Track status Best track data.

Storm track plot

Map of storm track

Intensity plots

No Intensity information for this storm


Radial wind information

No radial wind information for this storm


Position and Intensity Table

BASIN ISO_TIME_________ NATURE LAT LON
degrees north degrees east
SI 1888-12-11 06:00:00 NR -18.70 66.10
SI 09:00:00 NR -18.85 66.11
SI 12:00:00 NR -19.01 66.11
SI 15:00:00 NR -19.16 66.12
SI 18:00:00 NR -19.32 66.13
SI 21:00:00 NR -19.48 66.14
SI 1888-12-12 00:00:00 NR -19.65 66.16
SI 03:00:00 NR -19.82 66.18
SI 06:00:00 NR -20.00 66.20
SI 09:00:00 NR -20.18 66.23
SI 12:00:00 NR -20.37 66.27
SI 15:00:00 NR -20.57 66.31
SI 18:00:00 NR -20.77 66.36
SI 21:00:00 NR -20.97 66.41
SI 1888-12-13 00:00:00 NR -21.18 66.47
SI 03:00:00 NR -21.39 66.53
SI 06:00:00 NR -21.60 66.60
SI 09:00:00 NR -21.81 66.67
SI 12:00:00 NR -22.03 66.74
SI 15:00:00 NR -22.24 66.81
SI 18:00:00 NR -22.46 66.90
SI 21:00:00 NR -22.67 66.99
SI 1888-12-14 00:00:00 NR -22.89 67.08
SI 03:00:00 NR -23.09 67.19
SI 06:00:00 NR -23.30 67.30
SI 09:00:00 NR -23.50 67.41
SI 12:00:00 NR -23.70 67.53
SI 15:00:00 NR -23.90 67.66
SI 18:00:00 NR -24.09 67.80
SI 21:00:00 NR -24.27 67.94
SI 1888-12-15 00:00:00 NR -24.45 68.09
SI 03:00:00 NR -24.63 68.24
SI 06:00:00 NR -24.80 68.40
SI 09:00:00 NR -24.98 68.56
SI 12:00:00 NR -25.15 68.74
SI 15:00:00 NR -25.31 68.91
SI 18:00:00 NR -25.47 69.09
SI 21:00:00 NR -25.62 69.27
SI 1888-12-16 00:00:00 NR -25.76 69.45
SI 03:00:00 NR -25.88 69.63
SI 06:00:00 NR -26.00 69.80
SI 09:00:00 NR -26.10 69.97
SI 12:00:00 NR -26.20 70.12
SI 15:00:00 NR -26.28 70.28
SI 18:00:00 NR -26.35 70.43
SI 21:00:00 NR -26.42 70.57
SI 1888-12-17 00:00:00 NR -26.48 70.72
SI 03:00:00 NR -26.54 70.86
SI 06:00:00 NR -26.60 71.00

Source Information

Agency Information
USA
TOKYO
CMA
HKO
NEWDELHI
REUNION WMO-Best-Tracks.txt:Line=1536:xxxx888225
BOM
NADI
WELLINGTON
DS824
TD9636
TD9635
NEUMANN
MLC

All available IBTrACS Data

SEASON BASIN SUBBASIN ISO_TIME_________ NATURE LAT LON WMO AGENCY DIST2LAND LANDFALL IFLAG USA SSHS REUNION LAT REUNION LON REUNION TYPE REUNION TNUM STORM SPEED STORM DIR
Year degrees north degrees east km km 1 degrees north degrees east 1 kts degrees
1889 SI MM 1888-12-11 06:00:00 NR -18.70 66.10 reunion 888 885 _____O________ -1 -18.70 66.10 99 9.90 3 0
1889 SI MM 09:00:00 NR -18.85 66.11 883 881 _____P________ -1 -18.85 66.11 99 3 175
1889 SI MM 12:00:00 NR -19.01 66.11 881 877 _____P________ -1 -19.01 66.11 99 3 175
1889 SI MM 15:00:00 NR -19.16 66.12 877 875 _____P________ -1 -19.16 66.12 99 3 0
1889 SI MM 18:00:00 NR -19.32 66.13 875 872 _____P________ -1 -19.32 66.13 99 3 176
1889 SI MM 21:00:00 NR -19.48 66.14 872 870 _____P________ -1 -19.48 66.14 99 3 178
1889 SI MM 1888-12-12 00:00:00 NR -19.65 66.16 880 879 _____P________ -1 -19.65 66.16 99 3 173
1889 SI MM 03:00:00 NR -19.82 66.18 879 877 _____P________ -1 -19.82 66.18 99 4 173
1889 SI MM 06:00:00 NR -20.00 66.20 reunion 877 876 _____O________ -1 -20.00 66.20 99 9.90 4 170
1889 SI MM 09:00:00 NR -20.18 66.23 876 875 _____P________ -1 -20.18 66.23 99 4 171
1889 SI MM 12:00:00 NR -20.37 66.27 886 885 _____P________ -1 -20.37 66.27 99 4 170
1889 SI MM 15:00:00 NR -20.57 66.31 886 886 _____P________ -1 -20.57 66.31 99 4 169
1889 SI MM 18:00:00 NR -20.77 66.36 896 896 _____P________ -1 -20.77 66.36 99 4 167
1889 SI MM 21:00:00 NR -20.97 66.41 898 898 _____P________ -1 -20.97 66.41 99 4 165
1889 SI MM 1888-12-13 00:00:00 NR -21.18 66.47 909 909 _____P________ -1 -21.18 66.47 99 4 165
1889 SI MM 03:00:00 NR -21.39 66.53 912 912 _____P________ -1 -21.39 66.53 99 4 164
1889 SI MM 06:00:00 NR -21.60 66.60 reunion 925 925 _____O________ -1 -21.60 66.60 99 9.90 4 163
1889 SI MM 09:00:00 NR -21.81 66.67 938 938 _____P________ -1 -21.81 66.67 99 4 163
1889 SI MM 12:00:00 NR -22.03 66.74 941 941 _____P________ -1 -22.03 66.74 99 5 162
1889 SI MM 15:00:00 NR -22.24 66.81 956 956 _____P________ -1 -22.24 66.81 99 5 161
1889 SI MM 18:00:00 NR -22.46 66.90 973 973 _____P________ -1 -22.46 66.90 99 5 160
1889 SI MM 21:00:00 NR -22.67 66.99 988 988 _____P________ -1 -22.67 66.99 99 5 158
1889 SI MM 1888-12-14 00:00:00 NR -22.89 67.08 1003 1003 _____P________ -1 -22.89 67.08 99 5 156
1889 SI MM 03:00:00 NR -23.09 67.19 1019 1019 _____P________ -1 -23.09 67.19 99 5 154
1889 SI MM 06:00:00 NR -23.30 67.30 reunion 1036 1036 _____O________ -1 -23.30 67.30 99 9.90 5 153
1889 SI MM 09:00:00 NR -23.50 67.41 1052 1052 _____P________ -1 -23.50 67.41 99 5 152
1889 SI MM 12:00:00 NR -23.70 67.53 1069 1069 _____P________ -1 -23.70 67.53 99 5 150
1889 SI MM 15:00:00 NR -23.90 67.66 1095 1095 _____P________ -1 -23.90 67.66 99 5 148
1889 SI MM 18:00:00 NR -24.09 67.80 1112 1112 _____P________ -1 -24.09 67.80 99 5 146
1889 SI MM 21:00:00 NR -24.27 67.94 1130 1130 _____P________ -1 -24.27 67.94 99 5 144
1889 SI MM 1888-12-15 00:00:00 NR -24.45 68.09 1157 1157 _____P________ -1 -24.45 68.09 99 5 143
1889 SI MM 03:00:00 NR -24.63 68.24 1170 1170 _____P________ -1 -24.63 68.24 99 4 141
1889 SI MM 06:00:00 NR -24.80 68.40 reunion 1197 1197 _____O________ -1 -24.80 68.40 99 9.90 5 140
1889 SI MM 09:00:00 NR -24.98 68.56 1224 1224 _____P________ -1 -24.98 68.56 99 5 139
1889 SI MM 12:00:00 NR -25.15 68.74 1238 1238 _____P________ -1 -25.15 68.74 99 5 137
1889 SI MM 15:00:00 NR -25.31 68.91 1265 1265 _____P________ -1 -25.31 68.91 99 5 135
1889 SI MM 18:00:00 NR -25.47 69.09 1292 1292 _____P________ -1 -25.47 69.09 99 4 133
1889 SI MM 21:00:00 NR -25.62 69.27 1315 1315 _____P________ -1 -25.62 69.27 99 4 132
1889 SI MM 1888-12-16 00:00:00 NR -25.76 69.45 1342 1342 _____P________ -1 -25.76 69.45 99 4 130
1889 SI MM 03:00:00 NR -25.88 69.63 1356 1356 _____P________ -1 -25.88 69.63 99 4 128
1889 SI MM 06:00:00 NR -26.00 69.80 reunion 1379 1379 _____O________ -1 -26.00 69.80 99 9.90 4 126
1889 SI MM 09:00:00 NR -26.10 69.97 1401 1401 _____P________ -1 -26.10 69.97 99 4 124
1889 SI MM 12:00:00 NR -26.20 70.12 1415 1415 _____P________ -1 -26.20 70.12 99 3 122
1889 SI MM 15:00:00 NR -26.28 70.28 1438 1438 _____P________ -1 -26.28 70.28 99 3 120
1889 SI MM 18:00:00 NR -26.35 70.43 1451 1451 _____P________ -1 -26.35 70.43 99 3 118
1889 SI MM 21:00:00 NR -26.42 70.57 1470 1470 _____P________ -1 -26.42 70.57 99 3 117
1889 SI MM 1888-12-17 00:00:00 NR -26.48 70.72 1483 1483 _____P________ -1 -26.48 70.72 99 3 115
1889 SI MM 03:00:00 NR -26.54 70.86 1501 1501 _____P________ -1 -26.54 70.86 99 3 115
1889 SI MM 06:00:00 NR -26.60 71.00 reunion 1515 _____O________ -1 -26.60 71.00 99 9.90 3 115